Time;durP1;ratioP1;P1;durP2;ratioP2;P2;SDS_P1;SDS_P2;PMS_P1;PMS_P2;Temp;Humidity;BMP_temperature;BMP_pressure;BME280_temperature;BME280_humidity;BME280_pressure;Samples;Min_cycle;Max_cycle;Signal;HPM_P1;HPM_P2
2022/05/02 00:01:45;;;;;;;;;;;4.70;99.90;;;;;;5061030;28;19920;-73
2022/05/02 00:04:11;;;;;;;;;;;4.90;99.90;;;;;;5066335;28;20357;-73
2022/05/02 00:06:37;;;;;;;;;;;4.80;99.90;;;;;;5062238;28;20382;-74
2022/05/02 00:09:02;;;;;;;;;;;4.70;99.90;;;;;;5054477;28;19944;-74
2022/05/02 00:11:28;;;;;;;;;;;4.60;99.90;;;;;;5054140;28;19908;-74
2022/05/02 00:13:53;;;;;;;;;;;4.50;99.90;;;;;;5054203;28;20375;-74
2022/05/02 00:16:19;;;;;;;;;;;4.50;99.90;;;;;;5054234;28;19909;-74
2022/05/02 00:18:44;;;;;;;;;;;4.40;99.90;;;;;;5052148;28;19919;-74
2022/05/02 00:21:10;;;;;;;;;;;4.50;99.90;;;;;;5055985;28;20327;-74
2022/05/02 00:23:35;;;;;;;;;;;4.80;99.90;;;;;;5060098;28;19912;-74
2022/05/02 00:26:01;;;;;;;;;;;4.70;99.90;;;;;;5070368;28;19971;-73
2022/05/02 00:28:26;;;;;;;;;;;4.70;99.90;;;;;;5073623;28;19908;-73
2022/05/02 00:30:52;;;;;;;;;;;4.60;99.90;;;;;;5064449;28;19912;-73
2022/05/02 00:33:20;;;;;;;;;;;4.70;99.90;;;;;;5055817;28;19915;-73
2022/05/02 00:35:45;;;;;;;;;;;4.70;99.90;;;;;;5073178;28;19908;-73
2022/05/02 00:38:11;;;;;;;;;;;4.60;99.90;;;;;;5066687;28;20289;-73
2022/05/02 00:40:36;;;;;;;;;;;4.50;99.90;;;;;;5064825;28;19909;-73
2022/05/02 00:43:02;;;;;;;;;;;4.40;99.90;;;;;;5061528;28;19916;-73
2022/05/02 00:45:27;;;;;;;;;;;4.40;99.90;;;;;;5072691;28;20259;-73
2022/05/02 00:47:54;;;;;;;;;;;4.50;99.90;;;;;;5072996;28;20323;-73
2022/05/02 00:50:31;;;;;;;;;;;4.50;99.90;;;;;;5058619;28;20370;-73
2022/05/02 00:52:57;;;;;;;;;;;4.50;99.90;;;;;;5053326;28;20393;-74
2022/05/02 00:55:22;;;;;;;;;;;4.40;99.90;;;;;;5053255;28;19909;-74
2022/05/02 00:57:48;;;;;;;;;;;4.50;99.90;;;;;;5053590;28;19915;-73
2022/05/02 01:00:14;;;;;;;;;;;4.50;99.90;;;;;;5053449;28;20416;-73
2022/05/02 01:02:39;;;;;;;;;;;4.50;99.90;;;;;;5053272;28;19920;-73
2022/05/02 01:05:05;;;;;;;;;;;4.60;99.90;;;;;;5052645;28;19916;-73
2022/05/02 01:07:30;;;;;;;;;;;4.70;99.90;;;;;;5053302;28;19909;-74
2022/05/02 01:09:56;;;;;;;;;;;4.70;99.90;;;;;;5053529;28;19908;-74
2022/05/02 01:12:23;;;;;;;;;;;4.80;99.90;;;;;;5055767;28;19913;-73
2022/05/02 01:14:49;;;;;;;;;;;4.90;99.90;;;;;;5060850;28;19908;-74
2022/05/02 01:17:15;;;;;;;;;;;4.80;99.90;;;;;;5072553;28;19916;-73
2022/05/02 01:19:41;;;;;;;;;;;4.80;99.90;;;;;;5062510;28;20313;-74
2022/05/02 01:22:07;;;;;;;;;;;4.80;99.90;;;;;;5052537;28;20273;-73
2022/05/02 01:24:42;;;;;;;;;;;4.90;99.90;;;;;;5071757;28;20361;-73
2022/05/02 01:27:09;;;;;;;;;;;4.80;99.90;;;;;;5072143;28;20351;-73
2022/05/02 01:29:35;;;;;;;;;;;4.90;99.90;;;;;;5071929;28;19995;-73
2022/05/02 01:32:01;;;;;;;;;;;4.90;99.90;;;;;;5071565;28;20354;-73
2022/05/02 01:34:27;;;;;;;;;;;4.80;99.90;;;;;;5052713;28;19909;-74
2022/05/02 01:36:53;;;;;;;;;;;4.70;99.90;;;;;;5052841;28;20293;-73
2022/05/02 01:39:18;;;;;;;;;;;4.50;99.90;;;;;;5051979;28;20385;-74
2022/05/02 01:41:44;;;;;;;;;;;4.40;99.90;;;;;;5052142;28;19916;-74
2022/05/02 01:44:09;;;;;;;;;;;4.30;99.90;;;;;;5063356;28;19962;-74
2022/05/02 01:46:35;;;;;;;;;;;4.10;99.90;;;;;;5059490;28;20386;-73
2022/05/02 01:49:00;;;;;;;;;;;4.10;99.90;;;;;;5070998;28;20365;-73
2022/05/02 01:51:26;;;;;;;;;;;4.10;99.90;;;;;;5059993;28;19915;-73
2022/05/02 01:53:51;;;;;;;;;;;4.10;99.90;;;;;;5052032;28;20328;-74
2022/05/02 01:56:17;;;;;;;;;;;3.90;99.90;;;;;;5052401;28;19915;-73
2022/05/02 01:58:42;;;;;;;;;;;3.90;99.90;;;;;;5055423;28;19908;-73
2022/05/02 02:01:08;;;;;;;;;;;4.00;99.90;;;;;;5067461;28;19916;-73
2022/05/02 02:03:33;;;;;;;;;;;3.90;99.90;;;;;;5051839;28;20374;-73
2022/05/02 02:05:59;;;;;;;;;;;3.90;99.90;;;;;;5052199;28;19909;-73
2022/05/02 02:08:26;;;;;;;;;;;3.90;99.90;;;;;;5068562;28;19943;-73
2022/05/02 02:10:56;;;;;;;;;;;3.80;99.90;;;;;;5054696;28;19909;-73
2022/05/02 02:13:21;;;;;;;;;;;3.70;99.90;;;;;;5057617;28;19912;-73
2022/05/02 02:15:47;;;;;;;;;;;3.60;99.90;;;;;;5070273;28;20259;-73
2022/05/02 02:18:13;;;;;;;;;;;3.70;99.90;;;;;;5071204;28;19931;-73
2022/05/02 02:20:41;;;;;;;;;;;3.70;99.90;;;;;;5055218;28;19916;-73
2022/05/02 02:23:07;;;;;;;;;;;3.70;99.90;;;;;;5051484;28;20418;-73
2022/05/02 02:25:32;;;;;;;;;;;3.70;99.90;;;;;;5051917;28;20008;-73
2022/05/02 02:27:59;;;;;;;;;;;3.70;99.90;;;;;;5061035;28;19913;-73
2022/05/02 02:30:24;;;;;;;;;;;3.70;99.90;;;;;;5061144;28;20285;-73
2022/05/02 02:32:50;;;;;;;;;;;3.70;99.90;;;;;;5065639;28;19915;-73
2022/05/02 02:35:15;;;;;;;;;;;3.70;99.90;;;;;;5070803;28;19908;-73
2022/05/02 02:37:41;;;;;;;;;;;3.70;99.90;;;;;;5069840;28;19917;-73
2022/05/02 02:40:09;;;;;;;;;;;3.80;99.90;;;;;;5060917;28;19905;-73
2022/05/02 02:42:35;;;;;;;;;;;3.70;99.90;;;;;;5051211;28;19919;-73
2022/05/02 02:45:00;;;;;;;;;;;3.70;99.90;;;;;;5052770;28;19991;-73
2022/05/02 02:47:26;;;;;;;;;;;3.70;99.90;;;;;;5070857;28;19909;-73
2022/05/02 02:49:51;;;;;;;;;;;3.70;99.90;;;;;;5070707;28;19928;-73
2022/05/02 02:52:17;;;;;;;;;;;3.70;99.90;;;;;;5063621;28;19913;-73
2022/05/02 02:54:42;;;;;;;;;;;3.60;99.90;;;;;;5057831;28;20285;-73
2022/05/02 02:57:08;;;;;;;;;;;3.60;99.90;;;;;;5057960;28;20003;-73
2022/05/02 02:59:33;;;;;;;;;;;3.60;99.90;;;;;;5070829;28;20018;-73
2022/05/02 03:01:59;;;;;;;;;;;3.60;99.90;;;;;;5064438;28;19917;-73
2022/05/02 03:07:08;;;;;;;;;;;3.20;99.90;;;;;;5049409;28;19917;-73
2022/05/02 03:09:34;;;;;;;;;;;3.20;99.90;;;;;;5051416;28;20366;-73
2022/05/02 03:12:00;;;;;;;;;;;3.20;99.90;;;;;;5065012;28;19909;-73
2022/05/02 03:14:25;;;;;;;;;;;3.20;99.90;;;;;;5062925;28;19955;-73
2022/05/02 03:16:51;;;;;;;;;;;3.20;99.90;;;;;;5051167;28;20112;-73
2022/05/02 03:19:16;;;;;;;;;;;3.20;99.90;;;;;;5064274;28;20392;-73
2022/05/02 03:21:42;;;;;;;;;;;3.10;99.90;;;;;;5057502;28;19944;-73
2022/05/02 03:24:07;;;;;;;;;;;3.10;99.90;;;;;;5064373;28;19916;-73
2022/05/02 03:26:33;;;;;;;;;;;3.20;99.90;;;;;;5064459;28;19961;-73
2022/05/02 03:28:58;;;;;;;;;;;3.00;99.90;;;;;;5055197;28;19935;-73
2022/05/02 03:31:24;;;;;;;;;;;3.10;99.90;;;;;;5054389;28;19909;-73
2022/05/02 03:33:49;;;;;;;;;;;3.30;99.90;;;;;;5056193;28;19909;-73
2022/05/02 03:36:15;;;;;;;;;;;3.30;99.90;;;;;;5054652;28;19909;-73
2022/05/02 03:38:40;;;;;;;;;;;3.20;99.90;;;;;;5055139;28;19912;-73
2022/05/02 03:41:05;;;;;;;;;;;3.20;99.90;;;;;;5061719;28;20328;-73
2022/05/02 03:43:31;;;;;;;;;;;3.20;99.90;;;;;;5071835;28;19917;-73
2022/05/02 03:45:57;;;;;;;;;;;3.20;99.90;;;;;;5063224;28;20444;-73
2022/05/02 03:48:22;;;;;;;;;;;3.10;99.90;;;;;;5054611;28;19934;-73
2022/05/02 03:50:48;;;;;;;;;;;3.00;99.90;;;;;;5054718;28;19908;-73
2022/05/02 03:53:15;;;;;;;;;;;3.00;99.90;;;;;;5055199;28;19963;-73
2022/05/02 03:55:42;;;;;;;;;;;3.00;99.90;;;;;;5054302;28;20321;-73
2022/05/02 03:58:08;;;;;;;;;;;3.00;99.90;;;;;;5054611;28;19920;-73
2022/05/02 04:00:34;;;;;;;;;;;3.00;99.90;;;;;;5054608;28;19908;-73
2022/05/02 04:02:59;;;;;;;;;;;3.00;99.90;;;;;;5054195;28;20381;-73
2022/05/02 04:05:25;;;;;;;;;;;3.00;99.90;;;;;;5054311;28;19912;-73
2022/05/02 04:07:50;;;;;;;;;;;3.10;99.90;;;;;;5054310;28;19909;-73
2022/05/02 04:10:16;;;;;;;;;;;3.10;99.90;;;;;;5056596;28;20000;-73
2022/05/02 04:12:42;;;;;;;;;;;3.10;99.90;;;;;;5073375;28;19912;-73
2022/05/02 04:15:11;;;;;;;;;;;3.10;99.90;;;;;;5072073;28;19909;-73
2022/05/02 04:17:37;;;;;;;;;;;3.00;99.90;;;;;;5073413;28;19931;-73
2022/05/02 04:20:02;;;;;;;;;;;3.00;99.90;;;;;;5073321;28;20369;-73
2022/05/02 04:22:28;;;;;;;;;;;2.90;99.90;;;;;;5070844;28;19912;-74
2022/05/02 04:24:53;;;;;;;;;;;3.00;99.90;;;;;;5052944;28;20353;-73
2022/05/02 04:27:19;;;;;;;;;;;3.10;99.90;;;;;;5054817;28;19944;-73
2022/05/02 04:29:44;;;;;;;;;;;3.10;99.90;;;;;;5073161;28;20369;-73
2022/05/02 04:32:10;;;;;;;;;;;3.00;99.90;;;;;;5072737;28;19951;-73
2022/05/02 04:34:35;;;;;;;;;;;3.10;99.90;;;;;;5059810;28;20277;-73
2022/05/02 04:37:01;;;;;;;;;;;3.10;99.90;;;;;;5066698;28;19913;-73
2022/05/02 04:39:26;;;;;;;;;;;3.20;99.90;;;;;;5046088;28;20277;-73
2022/05/02 04:41:52;;;;;;;;;;;3.20;99.90;;;;;;5053495;28;19917;-73
2022/05/02 04:44:17;;;;;;;;;;;3.30;99.90;;;;;;5071272;28;19930;-73
2022/05/02 04:46:43;;;;;;;;;;;3.50;99.90;;;;;;5072782;28;20007;-73
2022/05/02 04:49:08;;;;;;;;;;;3.50;99.90;;;;;;5072744;28;19916;-74
2022/05/02 04:51:33;;;;;;;;;;;3.60;99.90;;;;;;5054602;28;19916;-73
2022/05/02 04:53:59;;;;;;;;;;;3.70;99.90;;;;;;5052977;28;19940;-73
2022/05/02 04:56:25;;;;;;;;;;;3.80;99.90;;;;;;5064655;28;19908;-74
2022/05/02 04:58:50;;;;;;;;;;;3.90;99.90;;;;;;5072602;28;19916;-74
2022/05/02 05:01:16;;;;;;;;;;;4.10;99.90;;;;;;5072247;28;19909;-73
2022/05/02 05:03:42;;;;;;;;;;;4.30;99.90;;;;;;5072356;28;19916;-74
2022/05/02 05:06:08;;;;;;;;;;;4.60;99.90;;;;;;5072408;28;20304;-74
2022/05/02 05:08:33;;;;;;;;;;;4.80;99.90;;;;;;5072413;28;20004;-73
2022/05/02 05:10:59;;;;;;;;;;;5.00;99.90;;;;;;5063142;28;19955;-74
2022/05/02 05:13:26;;;;;;;;;;;5.20;99.90;;;;;;5055886;28;19912;-74
2022/05/02 05:18:36;;;;;;;;;;;5.60;99.90;;;;;;5072420;28;19915;-73
2022/05/02 05:21:10;;;;;;;;;;;5.90;99.90;;;;;;5062256;28;19913;-73
2022/05/02 05:23:51;;;;;;;;;;;6.10;99.90;;;;;;5052600;28;19916;-73
2022/05/02 05:26:35;;;;;;;;;;;6.20;99.90;;;;;;5055063;28;19954;-74
2022/05/02 05:29:19;;;;;;;;;;;6.30;99.90;;;;;;5052847;28;19908;-73
2022/05/02 05:31:54;;;;;;;;;;;6.40;99.90;;;;;;5052723;28;19921;-73
2022/05/02 05:34:23;;;;;;;;;;;6.60;99.90;;;;;;5051408;28;19909;-73
2022/05/02 05:37:07;;;;;;;;;;;6.60;99.90;;;;;;5052636;28;19992;-73
2022/05/02 05:39:37;;;;;;;;;;;6.60;99.90;;;;;;5052894;28;20349;-73
2022/05/02 05:42:16;;;;;;;;;;;6.60;99.90;;;;;;5052257;28;19970;-73
2022/05/02 05:44:49;;;;;;;;;;;6.70;99.90;;;;;;5052286;28;20478;-73
2022/05/02 05:47:24;;;;;;;;;;;6.80;99.90;;;;;;5052369;28;20003;-74
2022/05/02 05:50:04;;;;;;;;;;;6.80;99.90;;;;;;5052174;28;19916;-73
2022/05/02 05:52:29;;;;;;;;;;;6.90;99.90;;;;;;5056339;28;20008;-74
2022/05/02 05:54:55;;;;;;;;;;;7.00;99.90;;;;;;5051534;28;20051;-74
2022/05/02 05:57:46;;;;;;;;;;;7.00;99.90;;;;;;5052228;28;20381;-73
2022/05/02 06:00:13;;;;;;;;;;;7.20;99.90;;;;;;5058972;28;19928;-73
2022/05/02 06:02:45;;;;;;;;;;;7.30;99.90;;;;;;5059929;28;19915;-73
2022/05/02 06:05:12;;;;;;;;;;;7.40;99.90;;;;;;5052012;28;19954;-74
2022/05/02 06:07:38;;;;;;;;;;;7.50;99.90;;;;;;5056540;28;19908;-74
2022/05/02 06:10:05;;;;;;;;;;;7.70;99.90;;;;;;5053977;28;19916;-73
2022/05/02 06:12:31;;;;;;;;;;;7.80;99.90;;;;;;5054847;28;19909;-73
2022/05/02 06:20:29;;;;;;;;;;;8.10;99.90;;;;;;5054501;28;19915;-73
2022/05/02 06:22:54;;;;;;;;;;;8.10;99.90;;;;;;5059742;28;20391;-74
2022/05/02 06:25:23;;;;;;;;;;;8.10;99.90;;;;;;5057612;28;20008;-74
2022/05/02 06:27:49;;;;;;;;;;;8.10;99.90;;;;;;5055871;28;19916;-74
2022/05/02 06:30:15;;;;;;;;;;;8.20;99.90;;;;;;5051809;28;20455;-73
2022/05/02 06:32:42;;;;;;;;;;;8.50;99.90;;;;;;5051567;28;20210;-74
2022/05/02 06:35:08;;;;;;;;;;;8.80;99.90;;;;;;5058020;28;20007;-74
2022/05/02 06:37:33;;;;;;;;;;;9.00;99.90;;;;;;5051623;28;19995;-74
2022/05/02 06:40:02;;;;;;;;;;;9.20;99.90;;;;;;5051729;28;19961;-74
2022/05/02 06:42:50;;;;;;;;;;;9.30;99.90;;;;;;5052533;28;19913;-74
2022/05/02 06:45:15;;;;;;;;;;;9.40;99.90;;;;;;5053413;28;19962;-73
2022/05/02 06:47:53;;;;;;;;;;;9.60;99.90;;;;;;5064021;28;19909;-74
2022/05/02 06:50:20;;;;;;;;;;;9.70;99.90;;;;;;5053299;28;19960;-74
2022/05/02 06:52:46;;;;;;;;;;;9.80;99.90;;;;;;5068192;28;19915;-74
2022/05/02 06:55:14;;;;;;;;;;;9.90;99.90;;;;;;5062135;28;20015;-74
2022/05/02 06:57:58;;;;;;;;;;;10.20;99.90;;;;;;5047741;28;19916;-74
2022/05/02 07:00:24;;;;;;;;;;;10.40;99.90;;;;;;5042957;28;19913;-74
2022/05/02 07:03:13;;;;;;;;;;;10.70;99.90;;;;;;5057653;28;19912;-74
2022/05/02 07:05:45;;;;;;;;;;;12.20;99.90;;;;;;5054066;28;20350;-74
2022/05/02 07:08:12;;;;;;;;;;;13.30;99.90;;;;;;5053840;28;19909;-74
2022/05/02 07:10:38;;;;;;;;;;;13.70;99.90;;;;;;5057901;28;19909;-74
2022/05/02 07:13:23;;;;;;;;;;;12.70;99.90;;;;;;5057215;28;19909;-74
2022/05/02 07:15:56;;;;;;;;;;;12.20;99.90;;;;;;5068275;28;19995;-74
2022/05/02 07:18:30;;;;;;;;;;;12.10;99.90;;;;;;5052872;28;19913;-74
2022/05/02 07:21:15;;;;;;;;;;;13.00;99.90;;;;;;5054253;28;19999;-73
2022/05/02 07:23:52;;;;;;;;;;;14.70;99.90;;;;;;5051437;28;19913;-73
2022/05/02 07:26:20;;;;;;;;;;;15.50;99.90;;;;;;5057410;28;20104;-73
2022/05/02 07:28:50;;;;;;;;;;;16.30;99.90;;;;;;5071699;28;19909;-73
2022/05/02 07:31:19;;;;;;;;;;;16.80;99.90;;;;;;5068168;28;20010;-72
2022/05/02 07:33:47;;;;;;;;;;;16.80;99.90;;;;;;5054755;28;19916;-73
2022/05/02 07:36:17;;;;;;;;;;;17.00;98.60;;;;;;5066900;28;19908;-73
2022/05/02 07:38:47;;;;;;;;;;;17.20;96.60;;;;;;5068058;28;20047;-73
2022/05/02 07:41:22;;;;;;;;;;;17.30;98.40;;;;;;5058657;28;19970;-73
2022/05/02 07:44:17;;;;;;;;;;;17.40;97.20;;;;;;5042802;28;20362;-73
2022/05/02 07:46:43;;;;;;;;;;;17.50;96.70;;;;;;5073373;28;20323;-73
2022/05/02 07:49:13;;;;;;;;;;;17.80;95.20;;;;;;5065967;28;19943;-74
2022/05/02 07:51:41;;;;;;;;;;;18.00;95.80;;;;;;5073346;28;19909;-74
2022/05/02 07:54:11;;;;;;;;;;;18.10;95.60;;;;;;5065566;28;19915;-73
2022/05/02 07:56:37;;;;;;;;;;;18.50;94.80;;;;;;5061876;28;19909;-73
2022/05/02 07:59:06;;;;;;;;;;;18.40;94.20;;;;;;5054471;28;19909;-74
2022/05/02 08:01:32;;;;;;;;;;;19.30;93.30;;;;;;5057026;28;20429;-74
2022/05/02 08:03:57;;;;;;;;;;;18.20;93.80;;;;;;5059474;28;20003;-73
2022/05/02 08:06:26;;;;;;;;;;;18.20;92.60;;;;;;5072002;28;19960;-73
2022/05/02 08:09:02;;;;;;;;;;;17.90;93.30;;;;;;5055121;28;20487;-73
2022/05/02 08:11:37;;;;;;;;;;;18.20;93.80;;;;;;5061703;28;19908;-73
2022/05/02 08:14:13;;;;;;;;;;;19.10;92.50;;;;;;5053498;28;20018;-73
2022/05/02 08:16:40;;;;;;;;;;;19.00;91.30;;;;;;5053900;28;19909;-74
2022/05/02 08:19:24;;;;;;;;;;;19.80;91.30;;;;;;5061781;28;19908;-74
2022/05/02 08:27:47;;;;;;;;;;;20.40;89.90;;;;;;5053609;28;20408;-73
2022/05/02 08:30:20;;;;;;;;;;;21.10;85.10;;;;;;5058953;28;19913;-73
2022/05/02 08:32:48;;;;;;;;;;;20.10;83.00;;;;;;5066500;28;19916;-73
2022/05/02 08:35:14;;;;;;;;;;;20.20;87.50;;;;;;5066465;28;19909;-73
2022/05/02 08:37:40;;;;;;;;;;;20.40;86.20;;;;;;5066439;28;19908;-73
2022/05/02 08:40:23;;;;;;;;;;;20.00;82.70;;;;;;5072858;28;20308;-74
2022/05/02 08:42:49;;;;;;;;;;;20.60;88.00;;;;;;5055583;28;19921;-73
2022/05/02 08:45:27;;;;;;;;;;;18.80;85.90;;;;;;5054161;28;20277;-73
2022/05/02 08:47:53;;;;;;;;;;;19.80;85.80;;;;;;5062492;28;19999;-73
2022/05/02 08:50:23;;;;;;;;;;;20.40;80.90;;;;;;5057065;28;20009;-73
2022/05/02 08:53:01;;;;;;;;;;;21.70;84.30;;;;;;5055637;28;19909;-74
2022/05/02 08:55:45;;;;;;;;;;;21.70;78.20;;;;;;5061638;28;19997;-74
2022/05/02 08:58:10;;;;;;;;;;;22.70;79.10;;;;;;5052028;28;19909;-73
2022/05/02 09:00:54;;;;;;;;;;;22.20;70.80;;;;;;5059116;28;19935;-73
2022/05/02 09:03:38;;;;;;;;;;;22.90;73.40;;;;;;5072176;28;20397;-73
2022/05/02 09:06:18;;;;;;;;;;;22.80;71.80;;;;;;5062162;28;19909;-74
2022/05/02 09:08:47;;;;;;;;;;;22.40;71.40;;;;;;5059033;28;19909;-73
2022/05/02 09:11:33;;;;;;;;;;;21.90;68.70;;;;;;5053554;28;19936;-73
2022/05/02 09:14:05;;;;;;;;;;;22.10;78.80;;;;;;5051824;28;19909;-73
2022/05/02 09:16:43;;;;;;;;;;;23.90;74.60;;;;;;5053033;28;19996;-74
2022/05/02 09:19:23;;;;;;;;;;;21.30;67.40;;;;;;5056834;28;19908;-73
2022/05/02 09:22:07;;;;;;;;;;;19.40;75.90;;;;;;5048797;28;19938;-73
2022/05/02 09:24:33;;;;;;;;;;;18.20;75.30;;;;;;5052278;28;19913;-73
2022/05/02 09:27:21;;;;;;;;;;;18.30;78.50;;;;;;5058042;28;19916;-73
2022/05/02 09:29:49;;;;;;;;;;;18.20;80.40;;;;;;5056512;28;19909;-73
2022/05/02 09:32:23;;;;;;;;;;;21.10;74.70;;;;;;5061335;28;20378;-74
2022/05/02 09:34:56;;;;;;;;;;;23.70;74.80;;;;;;5052342;28;19908;-73
2022/05/02 09:37:23;;;;;;;;;;;22.20;67.90;;;;;;5058134;28;19912;-74
2022/05/02 09:39:54;;;;;;;;;;;23.90;74.80;;;;;;5059736;28;19955;-74
2022/05/02 09:42:39;;;;;;;;;;;23.70;64.80;;;;;;5064519;28;19913;-73
2022/05/02 09:50:59;;;;;;;;;;;24.00;68.00;;;;;;5071556;28;19973;-74
2022/05/02 09:53:40;;;;;;;;;;;23.90;63.10;;;;;;5065799;28;20019;-74
2022/05/02 09:58:56;;;;;;;;;;;19.20;74.60;;;;;;5047538;28;19978;-74
2022/05/02 10:01:26;;;;;;;;;;;18.90;79.10;;;;;;5060302;28;20288;-74
2022/05/02 10:03:58;;;;;;;;;;;17.90;79.60;;;;;;5052312;28;20380;-74
2022/05/02 10:06:32;;;;;;;;;;;18.20;80.70;;;;;;5051228;28;19952;-73
2022/05/02 10:09:09;;;;;;;;;;;20.40;81.80;;;;;;5048461;28;19965;-74
2022/05/02 10:11:40;;;;;;;;;;;21.50;68.40;;;;;;5060170;28;19978;-74
2022/05/02 10:14:29;;;;;;;;;;;19.70;74.10;;;;;;5070787;28;19939;-74
2022/05/02 10:17:06;;;;;;;;;;;21.80;77.20;;;;;;5052961;28;19916;-74
2022/05/02 10:19:50;;;;;;;;;;;21.50;75.80;;;;;;5050664;28;19909;-73
2022/05/02 10:22:15;;;;;;;;;;;19.30;73.20;;;;;;5062430;28;19935;-74
2022/05/02 10:24:53;;;;;;;;;;;22.50;76.40;;;;;;5052143;28;20353;-74
2022/05/02 10:27:27;;;;;;;;;;;25.00;69.00;;;;;;5055111;28;19908;-74
2022/05/02 10:30:01;;;;;;;;;;;23.00;63.20;;;;;;5070982;28;19912;-74
2022/05/02 10:32:33;;;;;;;;;;;19.40;70.80;;;;;;5056770;28;19909;-74
2022/05/02 10:34:59;;;;;;;;;;;21.20;75.70;;;;;;5057803;28;19995;-74
2022/05/02 10:37:31;;;;;;;;;;;22.80;64.80;;;;;;5051889;28;20098;-74
2022/05/02 10:40:12;;;;;;;;;;;21.30;73.50;;;;;;5056319;28;20316;-74
2022/05/02 10:42:43;;;;;;;;;;;20.20;72.70;;;;;;5057894;28;19913;-74
2022/05/02 10:45:09;;;;;;;;;;;19.30;78.40;;;;;;5051276;28;19912;-74
2022/05/02 10:47:39;;;;;;;;;;;18.10;76.00;;;;;;5061834;28;19908;-74
2022/05/02 10:50:18;;;;;;;;;;;18.20;82.00;;;;;;5070639;28;19944;-74
2022/05/02 10:52:49;;;;;;;;;;;18.20;76.60;;;;;;5063174;28;19915;-74
2022/05/02 10:55:19;;;;;;;;;;;18.70;77.10;;;;;;5052684;28;20439;-74
2022/05/02 10:57:46;;;;;;;;;;;18.90;78.20;;;;;;5057571;28;19956;-74
2022/05/02 11:00:12;;;;;;;;;;;18.00;76.10;;;;;;5051355;28;19948;-74
2022/05/02 11:02:49;;;;;;;;;;;17.50;77.40;;;;;;5044205;28;20362;-74
2022/05/02 11:05:15;;;;;;;;;;;17.40;81.30;;;;;;5065068;28;19940;-74
2022/05/02 11:07:41;;;;;;;;;;;17.20;77.80;;;;;;5070477;28;19912;-74
2022/05/02 11:10:08;;;;;;;;;;;17.30;82.50;;;;;;5070049;28;19909;-74
2022/05/02 11:12:45;;;;;;;;;;;17.60;81.20;;;;;;5070187;28;20258;-74
2022/05/02 11:15:17;;;;;;;;;;;21.30;76.90;;;;;;5070601;28;19908;-75
2022/05/02 11:17:48;;;;;;;;;;;21.70;67.00;;;;;;5054995;28;19913;-74
2022/05/02 11:20:43;;;;;;;;;;;21.40;69.40;;;;;;5051068;28;19951;-74
2022/05/02 11:23:27;;;;;;;;;;;21.70;67.40;;;;;;5049220;28;19947;-75
2022/05/02 11:26:11;;;;;;;;;;;20.00;72.70;;;;;;5048629;28;19917;-75
2022/05/02 11:28:48;;;;;;;;;;;19.30;72.40;;;;;;5049440;28;20000;-75
2022/05/02 11:31:35;;;;;;;;;;;18.60;76.00;;;;;;5050505;28;20308;-75
2022/05/02 11:34:19;;;;;;;;;;;19.00;74.50;;;;;;5037645;28;19909;-75
2022/05/02 11:36:49;;;;;;;;;;;20.40;68.50;;;;;;5050950;28;19913;-76
2022/05/02 11:39:20;;;;;;;;;;;19.80;69.40;;;;;;5050854;28;20328;-75
2022/05/02 11:41:47;;;;;;;;;;;19.30;72.50;;;;;;5050829;28;20277;-75
2022/05/02 11:44:13;;;;;;;;;;;20.70;69.90;;;;;;5050742;28;19913;-77
2022/05/02 11:46:54;;;;;;;;;;;20.80;66.30;;;;;;5051612;28;19915;-75
2022/05/02 11:49:20;;;;;;;;;;;20.00;74.60;;;;;;5055125;28;20030;-75
2022/05/02 11:51:47;;;;;;;;;;;19.10;71.20;;;;;;5054029;28;19916;-75
2022/05/02 11:54:27;;;;;;;;;;;20.50;74.00;;;;;;5047447;28;19959;-75
2022/05/02 11:57:05;;;;;;;;;;;21.10;66.40;;;;;;5050187;28;20388;-75
2022/05/02 11:59:36;;;;;;;;;;;21.30;64.50;;;;;;5052465;28;19909;-75
2022/05/02 12:02:03;;;;;;;;;;;21.20;65.10;;;;;;5057841;28;19916;-77
2022/05/02 12:04:30;;;;;;;;;;;19.30;70.80;;;;;;5054295;28;19978;-75
2022/05/02 12:07:05;;;;;;;;;;;18.70;70.50;;;;;;5054675;28;19908;-77
2022/05/02 12:09:32;;;;;;;;;;;18.70;74.30;;;;;;5055212;28;20285;-75
2022/05/02 12:12:02;;;;;;;;;;;19.00;69.20;;;;;;5054372;28;19963;-75
2022/05/02 12:14:30;;;;;;;;;;;20.20;72.50;;;;;;5071753;28;20176;-75
2022/05/02 12:17:02;;;;;;;;;;;20.60;66.50;;;;;;5072960;28;20318;-75
2022/05/02 12:19:30;;;;;;;;;;;20.30;66.30;;;;;;5055219;28;19916;-74
2022/05/02 12:21:57;;;;;;;;;;;19.50;70.80;;;;;;5054192;28;19924;-76
2022/05/02 12:24:27;;;;;;;;;;;19.50;71.30;;;;;;5053615;28;19920;-74
2022/05/02 12:26:52;;;;;;;;;;;20.40;70.00;;;;;;5054408;28;20024;-75
2022/05/02 12:29:19;;;;;;;;;;;19.70;69.10;;;;;;5059611;28;20456;-76
2022/05/02 12:31:53;;;;;;;;;;;19.50;72.50;;;;;;5072949;28;19913;-75
2022/05/02 12:34:20;;;;;;;;;;;19.00;72.70;;;;;;5073097;28;20365;-75
2022/05/02 12:36:46;;;;;;;;;;;18.90;70.60;;;;;;5073220;28;19915;-75
2022/05/02 12:39:13;;;;;;;;;;;19.00;70.90;;;;;;5073231;28;19908;-74
2022/05/02 12:41:45;;;;;;;;;;;18.70;71.90;;;;;;5072591;28;19912;-75
2022/05/02 12:44:12;;;;;;;;;;;18.90;73.90;;;;;;5072998;28;19912;-75
2022/05/02 12:46:39;;;;;;;;;;;21.20;68.70;;;;;;5046486;28;19909;-75
2022/05/02 12:49:05;;;;;;;;;;;21.80;66.20;;;;;;5049104;28;20370;-76
2022/05/02 12:51:31;;;;;;;;;;;19.90;68.80;;;;;;5072830;28;19909;-75
2022/05/02 12:54:14;;;;;;;;;;;19.30;71.30;;;;;;5072606;28;20022;-75
2022/05/02 13:02:53;;;;;;;;;;;21.10;63.80;;;;;;5072326;28;20404;-75
2022/05/02 13:05:20;;;;;;;;;;;19.90;66.70;;;;;;5072254;28;19909;-76
2022/05/02 13:07:51;;;;;;;;;;;19.60;67.10;;;;;;5072892;28;19909;-75
2022/05/02 13:10:26;;;;;;;;;;;19.50;68.80;;;;;;5054026;28;19908;-74
2022/05/02 13:13:06;;;;;;;;;;;19.30;68.20;;;;;;5053217;28;19913;-75
2022/05/02 13:15:41;;;;;;;;;;;19.50;71.70;;;;;;5052190;28;19963;-75
2022/05/02 13:18:12;;;;;;;;;;;19.50;68.00;;;;;;5053053;28;19913;-75
2022/05/02 13:20:39;;;;;;;;;;;22.40;64.40;;;;;;5053271;28;19908;-75
2022/05/02 13:23:07;;;;;;;;;;;21.80;62.30;;;;;;5051375;28;20315;-78
2022/05/02 13:25:55;;;;;;;;;;;21.40;64.70;;;;;;5049632;28;19913;-75
2022/05/02 13:28:26;;;;;;;;;;;21.90;66.50;;;;;;5057948;28;19916;-75
2022/05/02 13:30:54;;;;;;;;;;;21.80;63.90;;;;;;5046482;28;19995;-75
2022/05/02 13:33:27;;;;;;;;;;;19.40;69.00;;;;;;5052464;28;19909;-75
2022/05/02 13:36:02;;;;;;;;;;;18.80;71.30;;;;;;5052447;28;19912;-75
2022/05/02 13:38:34;;;;;;;;;;;18.80;74.00;;;;;;5059272;28;19944;-75
2022/05/02 13:41:10;;;;;;;;;;;18.90;75.30;;;;;;5068358;28;19916;-75
2022/05/02 13:43:37;;;;;;;;;;;19.00;72.20;;;;;;5071379;28;19913;-76
2022/05/02 13:46:09;;;;;;;;;;;19.40;75.20;;;;;;5071884;28;19913;-75
2022/05/02 13:48:40;;;;;;;;;;;19.30;73.90;;;;;;5053336;28;20301;-76
2022/05/02 13:51:32;;;;;;;;;;;20.20;70.40;;;;;;5057875;28;20337;-77
2022/05/02 13:53:59;;;;;;;;;;;21.90;65.40;;;;;;5053560;28;19948;-75
2022/05/02 13:56:27;;;;;;;;;;;21.50;69.30;;;;;;5071390;28;19908;-76
2022/05/02 13:58:57;;;;;;;;;;;22.40;62.90;;;;;;5071404;28;19916;-75
2022/05/02 14:01:39;;;;;;;;;;;20.40;68.40;;;;;;5063898;28;19909;-75
2022/05/02 14:07:04;;;;;;;;;;;21.80;65.50;;;;;;5052730;28;19908;-75
2022/05/02 14:09:44;;;;;;;;;;;20.30;69.60;;;;;;5059407;28;19912;-75
2022/05/02 14:12:27;;;;;;;;;;;19.10;70.60;;;;;;5070913;28;19999;-75
2022/05/02 14:14:57;;;;;;;;;;;18.70;72.00;;;;;;5071000;28;20017;-75
2022/05/02 14:17:33;;;;;;;;;;;18.80;72.40;;;;;;5058144;28;20207;-75
2022/05/02 14:20:08;;;;;;;;;;;19.60;73.40;;;;;;5051043;28;19912;-76
2022/05/02 14:22:33;;;;;;;;;;;19.00;72.80;;;;;;5046592;28;19924;-75
2022/05/02 14:25:00;;;;;;;;;;;18.80;73.10;;;;;;5046910;28;19908;-75
2022/05/02 14:27:28;;;;;;;;;;;18.50;73.30;;;;;;5055367;28;19970;-75
2022/05/02 14:30:02;;;;;;;;;;;18.50;75.50;;;;;;5051848;28;19908;-75
2022/05/02 14:32:44;;;;;;;;;;;18.70;77.20;;;;;;5051964;28;19912;-76
2022/05/02 14:35:29;;;;;;;;;;;18.60;75.30;;;;;;5052360;28;19908;-75
2022/05/02 14:37:56;;;;;;;;;;;18.30;73.70;;;;;;5051968;28;20381;-74
2022/05/02 14:40:22;;;;;;;;;;;18.40;73.30;;;;;;5052059;28;19916;-76
2022/05/02 14:42:51;;;;;;;;;;;18.70;73.60;;;;;;5051394;28;19979;-75
2022/05/02 14:45:18;;;;;;;;;;;18.80;75.50;;;;;;5051690;28;20347;-75
2022/05/02 14:47:46;;;;;;;;;;;18.30;72.30;;;;;;5051642;28;19909;-75
2022/05/02 14:50:12;;;;;;;;;;;18.30;71.50;;;;;;5054253;28;20061;-75
2022/05/02 14:52:38;;;;;;;;;;;18.40;72.70;;;;;;5050052;28;19996;-75
2022/05/02 14:55:05;;;;;;;;;;;19.60;73.50;;;;;;5051176;28;19995;-75
2022/05/02 14:57:31;;;;;;;;;;;19.70;73.60;;;;;;5052399;28;19909;-75
2022/05/02 14:59:59;;;;;;;;;;;19.10;71.80;;;;;;5069921;28;20423;-75
2022/05/02 15:02:28;;;;;;;;;;;19.10;70.20;;;;;;5066348;28;19920;-75
2022/05/02 15:05:00;;;;;;;;;;;19.30;70.70;;;;;;5056338;28;19908;-75
2022/05/02 15:07:30;;;;;;;;;;;19.30;70.60;;;;;;5070370;28;19909;-75
2022/05/02 15:10:15;;;;;;;;;;;19.10;70.10;;;;;;5070449;28;19908;-75
2022/05/02 15:12:43;;;;;;;;;;;18.90;72.70;;;;;;5047194;28;19928;-75
2022/05/02 15:15:08;;;;;;;;;;;18.70;74.30;;;;;;5051032;28;19909;-75